Terminal Aerodrome Forecast
Issued by NWS

Home | Current Version | Previous Version | Text Only | Print | Product List | Glossary On
Versions: 1 2 3 4 5 6 7 8 9 10 11 12
000
FTUS45 KRIW 172300
TAFBPI
TAF
KBPI 172320Z 1800/1824 31011G18KT P6SM FEW090 SCT150
     FM180200 34007KT P6SM FEW200
     FM181200 VRB04KT P6SM SCT150=

USA.gov is the U.S. government's official web portal to all federal, state and local government web resources and services.